createdAt,value
2017-08-21T00:01:50.067Z,14.90
2017-08-21T00:04:18.153Z,14.70
2017-08-21T00:06:46.261Z,14.70
2017-08-21T00:09:14.393Z,14.70
2017-08-21T00:11:42.524Z,14.70
2017-08-21T00:14:10.632Z,14.80
2017-08-21T00:16:38.752Z,14.90
2017-08-21T00:19:06.840Z,14.90
2017-08-21T00:21:34.963Z,14.80
2017-08-21T00:24:03.060Z,14.80
2017-08-21T00:26:31.176Z,14.70
2017-08-21T00:28:59.317Z,14.60
2017-08-21T00:31:27.452Z,14.50
2017-08-21T00:33:55.552Z,14.50
2017-08-21T00:36:24.429Z,14.40
2017-08-21T00:38:52.540Z,14.40
2017-08-21T00:41:20.653Z,14.40
2017-08-21T00:43:48.791Z,14.50
2017-08-21T00:46:16.889Z,14.40
2017-08-21T00:48:45.000Z,14.40
2017-08-21T00:51:13.110Z,14.40
2017-08-21T00:53:41.245Z,14.40
2017-08-21T00:56:09.346Z,14.30
2017-08-21T00:58:38.233Z,14.30
2017-08-21T01:01:06.346Z,14.30
2017-08-21T01:03:34.482Z,14.30
2017-08-21T01:06:02.593Z,14.20
2017-08-21T01:08:30.707Z,14.10
2017-08-21T01:10:58.798Z,13.90
2017-08-21T01:13:27.665Z,14.00
2017-08-21T01:15:55.761Z,13.90
2017-08-21T01:18:24.630Z,14.00
2017-08-21T01:20:52.802Z,14.00
2017-08-21T01:23:20.893Z,13.90
2017-08-21T01:25:48.994Z,13.90
2017-08-21T01:28:17.109Z,13.70
2017-08-21T01:30:45.213Z,13.60
2017-08-21T01:33:14.078Z,13.60
2017-08-21T01:35:42.173Z,13.60
2017-08-21T01:38:10.277Z,13.60
2017-08-21T01:40:38.393Z,13.70
2017-08-21T01:43:06.554Z,13.70
2017-08-21T01:45:34.642Z,13.60
2017-08-21T01:48:02.750Z,13.50
2017-08-21T01:50:31.620Z,13.50
2017-08-21T01:52:59.732Z,13.50
2017-08-21T01:55:27.854Z,13.30
2017-08-21T01:57:55.970Z,13.30
2017-08-21T02:00:24.095Z,13.20
2017-08-21T02:02:52.221Z,13.20
2017-08-21T02:05:20.329Z,13.20
2017-08-21T02:07:48.444Z,13.10
2017-08-21T02:10:16.561Z,13.30
2017-08-21T02:12:44.677Z,13.30
2017-08-21T02:15:12.770Z,13.30
2017-08-21T02:17:40.903Z,13.30
2017-08-21T02:20:09.001Z,13.30
2017-08-21T02:22:37.113Z,13.40
2017-08-21T02:25:05.216Z,13.30
2017-08-21T02:27:33.344Z,13.20
2017-08-21T02:30:01.455Z,13.20
2017-08-21T02:32:29.560Z,13.10
2017-08-21T02:34:57.649Z,13.20
2017-08-21T02:37:25.747Z,14.40
2017-08-21T02:39:53.855Z,13.00
2017-08-21T02:42:21.954Z,13.00
2017-08-21T02:44:50.071Z,13.10
2017-08-21T02:47:18.174Z,13.10
2017-08-21T02:49:46.274Z,13.10
2017-08-21T02:52:14.375Z,13.10
2017-08-21T02:54:42.521Z,13.00
2017-08-21T02:57:10.628Z,13.00
2017-08-21T02:59:38.713Z,12.90
2017-08-21T03:02:06.809Z,12.80
2017-08-21T03:04:34.906Z,12.80
2017-08-21T03:07:03.001Z,13.30
2017-08-21T03:09:31.086Z,12.90
2017-08-21T03:11:59.257Z,12.90
2017-08-21T03:14:27.452Z,13.00
2017-08-21T03:16:55.609Z,12.90
2017-08-21T03:19:24.585Z,12.90
2017-08-21T03:21:52.681Z,12.90
2017-08-21T03:24:20.895Z,13.00
2017-08-21T03:26:49.028Z,13.00
2017-08-21T03:29:17.125Z,12.80
2017-08-21T03:31:45.229Z,12.90
2017-08-21T03:34:13.845Z,13.00
2017-08-21T03:36:41.972Z,12.90
2017-08-21T03:39:10.073Z,12.90
2017-08-21T03:41:38.177Z,12.90
2017-08-21T03:44:06.274Z,12.90
2017-08-21T03:46:34.385Z,13.00
2017-08-21T03:49:02.496Z,13.10
2017-08-21T03:51:30.618Z,13.00
2017-08-21T03:53:58.724Z,13.00
2017-08-21T03:56:26.831Z,13.10
2017-08-21T03:58:54.939Z,13.00
2017-08-21T04:01:23.059Z,13.10
2017-08-21T04:03:51.913Z,12.80
2017-08-21T04:06:20.017Z,12.80
2017-08-21T04:08:48.160Z,12.90
2017-08-21T04:11:16.317Z,12.80
2017-08-21T04:13:44.416Z,13.00
2017-08-21T04:16:12.538Z,13.30
2017-08-21T04:18:40.631Z,13.50
2017-08-21T04:21:08.740Z,13.20
2017-08-21T04:23:36.845Z,13.00
2017-08-21T04:26:04.957Z,12.80
2017-08-21T04:28:33.051Z,12.70
2017-08-21T04:31:01.166Z,12.60
2017-08-21T04:33:29.290Z,12.60
2017-08-21T04:35:57.425Z,12.50
2017-08-21T04:38:25.524Z,12.40
2017-08-21T04:40:53.624Z,12.50
2017-08-21T04:43:21.721Z,12.50
2017-08-21T04:45:49.842Z,12.40
2017-08-21T04:48:17.935Z,12.60
2017-08-21T04:50:46.042Z,12.70
2017-08-21T04:53:14.168Z,12.60
2017-08-21T04:55:42.248Z,12.60
2017-08-21T04:58:10.362Z,12.60
2017-08-21T05:00:38.437Z,12.40
2017-08-21T05:03:06.546Z,12.50
2017-08-21T05:05:34.682Z,12.40
2017-08-21T05:08:02.799Z,12.30
2017-08-21T05:10:30.890Z,12.50
2017-08-21T05:12:58.990Z,12.50
2017-08-21T05:15:30.664Z,12.60
2017-08-21T05:17:59.536Z,12.50
2017-08-21T05:20:28.412Z,12.50
2017-08-21T05:22:56.532Z,12.50
2017-08-21T05:25:24.633Z,12.50
2017-08-21T05:27:52.735Z,12.60
2017-08-21T05:30:20.847Z,12.60
2017-08-21T05:32:48.949Z,12.60
2017-08-21T05:35:17.053Z,12.60
2017-08-21T05:37:45.133Z,12.60
2017-08-21T05:40:13.246Z,12.80
2017-08-21T05:42:41.366Z,12.80
2017-08-21T05:45:09.471Z,13.00
2017-08-21T05:47:37.570Z,13.00
2017-08-21T05:50:05.675Z,12.90
2017-08-21T05:52:33.821Z,13.10
2017-08-21T05:55:01.937Z,12.90
2017-08-21T05:57:30.042Z,12.90
2017-08-21T05:59:58.131Z,13.60
2017-08-21T06:02:26.233Z,15.20
2017-08-21T06:04:54.340Z,16.30
2017-08-21T06:07:22.452Z,17.10
2017-08-21T06:09:50.559Z,18.10
2017-08-21T06:12:18.659Z,18.50
2017-08-21T06:14:46.765Z,18.70
2017-08-21T06:17:14.894Z,18.50
2017-08-21T06:19:42.996Z,17.50
2017-08-21T06:22:11.133Z,17.00
2017-08-21T06:24:39.304Z,16.50
2017-08-21T06:27:07.429Z,16.20
2017-08-21T06:29:35.566Z,15.70
2017-08-21T06:32:03.665Z,15.60
2017-08-21T06:34:32.529Z,15.40
2017-08-21T06:37:00.678Z,15.40
2017-08-21T06:39:28.784Z,15.40
2017-08-21T06:41:56.884Z,15.50
2017-08-21T06:44:24.997Z,15.60
2017-08-21T06:46:53.119Z,15.60
2017-08-21T06:49:22.034Z,15.50
2017-08-21T06:51:50.147Z,15.50
2017-08-21T06:54:18.289Z,15.70
2017-08-21T06:56:46.382Z,15.40
2017-08-21T06:59:14.497Z,15.40
2017-08-21T07:01:43.385Z,15.50
2017-08-21T07:04:11.489Z,15.50
2017-08-21T07:06:39.620Z,15.60
2017-08-21T07:09:07.738Z,15.60
2017-08-21T07:11:35.861Z,15.40
2017-08-21T07:14:03.979Z,15.40
2017-08-21T07:16:32.084Z,15.40
2017-08-21T07:19:00.219Z,15.50
2017-08-21T07:21:28.360Z,15.50
2017-08-21T07:23:56.457Z,15.60
2017-08-21T07:26:24.601Z,15.60
2017-08-21T07:28:52.793Z,15.70
2017-08-21T07:31:20.985Z,15.70
2017-08-21T07:33:49.106Z,15.80
2017-08-21T07:36:17.205Z,15.80
2017-08-21T07:38:45.300Z,16.00
2017-08-21T07:41:13.447Z,16.20
2017-08-21T07:43:41.540Z,16.30
2017-08-21T07:46:09.669Z,16.20
2017-08-21T07:48:37.932Z,16.20
2017-08-21T07:51:06.098Z,16.40
2017-08-21T07:53:34.218Z,16.60
2017-08-21T07:56:02.334Z,16.70
2017-08-21T07:58:30.521Z,16.80
2017-08-21T08:00:58.663Z,16.80
2017-08-21T08:03:27.551Z,17.10
2017-08-21T08:05:55.659Z,17.00
2017-08-21T08:08:23.756Z,17.10
2017-08-21T08:10:51.840Z,17.10
2017-08-21T08:13:19.936Z,17.30
2017-08-21T08:15:48.099Z,17.30
2017-08-21T08:18:16.209Z,17.30
2017-08-21T08:20:45.619Z,17.20
2017-08-21T08:23:13.725Z,17.20
2017-08-21T08:25:41.816Z,17.20
2017-08-21T08:28:09.921Z,17.30
2017-08-21T08:30:38.838Z,17.10
2017-08-21T08:33:06.958Z,17.10
2017-08-21T08:35:35.064Z,16.80
2017-08-21T08:38:03.134Z,17.00
2017-08-21T08:40:32.420Z,17.60
2017-08-21T08:43:00.492Z,17.60
2017-08-21T08:45:28.576Z,17.80
2017-08-21T08:47:56.653Z,17.70
2017-08-21T08:50:24.727Z,17.90
2017-08-21T08:52:53.560Z,17.70
2017-08-21T08:55:21.631Z,17.70
2017-08-21T08:57:49.703Z,17.50
2017-08-21T09:00:17.815Z,17.50
2017-08-21T09:02:45.899Z,17.80
2017-08-21T09:05:13.993Z,18.10
2017-08-21T09:07:42.067Z,18.30
2017-08-21T09:10:10.516Z,18.40
2017-08-21T09:12:38.593Z,18.60
2017-08-21T09:15:06.675Z,18.60
2017-08-21T09:17:35.515Z,18.70
2017-08-21T09:20:03.601Z,18.60
2017-08-21T09:22:31.677Z,18.70
2017-08-21T09:24:59.766Z,18.60
2017-08-21T09:27:27.841Z,18.70
2017-08-21T09:29:55.923Z,18.60
2017-08-21T09:32:24.777Z,18.80
2017-08-21T09:34:52.865Z,18.80
2017-08-21T09:37:20.943Z,18.70
2017-08-21T09:39:49.015Z,18.60
2017-08-21T09:42:17.109Z,18.50
2017-08-21T09:44:45.169Z,18.40
2017-08-21T09:47:13.277Z,18.40
2017-08-21T09:49:41.340Z,18.40
2017-08-21T09:52:10.199Z,18.50
2017-08-21T09:54:38.277Z,18.50
2017-08-21T09:57:06.368Z,18.60
2017-08-21T09:59:34.447Z,18.60
2017-08-21T10:02:02.515Z,18.60
2017-08-21T10:04:31.364Z,18.70
2017-08-21T10:06:59.435Z,18.70
2017-08-21T10:09:27.523Z,19.00
2017-08-21T10:11:55.603Z,19.10
2017-08-21T10:14:23.689Z,19.30
2017-08-21T10:16:51.760Z,19.20
2017-08-21T10:19:20.608Z,19.40
2017-08-21T10:21:48.691Z,19.40
2017-08-21T10:24:16.767Z,19.30
2017-08-21T10:26:44.856Z,19.30
2017-08-21T10:29:12.949Z,19.40
2017-08-21T10:31:41.017Z,19.30
2017-08-21T10:34:09.088Z,19.40
2017-08-21T10:36:37.251Z,19.40
2017-08-21T10:39:05.317Z,19.50
2017-08-21T10:41:33.399Z,19.50
2017-08-21T10:44:01.474Z,19.50
2017-08-21T10:46:29.551Z,19.50
2017-08-21T10:48:57.648Z,19.50
2017-08-21T10:51:25.719Z,19.50
2017-08-21T10:53:53.791Z,19.30
2017-08-21T10:56:21.863Z,19.40
2017-08-21T10:58:49.936Z,19.40
2017-08-21T11:01:18.175Z,19.30
2017-08-21T11:03:46.244Z,19.40
2017-08-21T11:06:14.340Z,19.50
2017-08-21T11:08:43.180Z,19.60
2017-08-21T11:11:11.264Z,19.60
2017-08-21T11:13:39.340Z,19.70
2017-08-21T11:16:07.407Z,19.70
2017-08-21T11:18:35.495Z,19.70
2017-08-21T11:23:38.702Z,19.50
2017-08-21T11:26:06.779Z,19.50
2017-08-21T11:28:34.865Z,19.70
2017-08-21T11:31:02.935Z,19.80
2017-08-21T11:33:31.008Z,20.10
2017-08-21T11:35:59.847Z,20.10
2017-08-21T11:38:27.919Z,20.10
2017-08-21T11:40:56.008Z,19.90
2017-08-21T11:43:24.120Z,19.90
2017-08-21T11:45:52.221Z,19.80
2017-08-21T11:48:20.321Z,19.90
2017-08-21T11:50:48.413Z,20.10
2017-08-21T11:53:55.833Z,20.20
2017-08-21T11:56:23.908Z,20.20
2017-08-21T11:58:52.057Z,20.10
2017-08-21T12:01:20.156Z,20.00
2017-08-21T12:03:48.258Z,20.00
2017-08-21T12:06:16.352Z,19.90
2017-08-21T12:08:44.437Z,19.90
2017-08-21T12:11:12.600Z,20.00
2017-08-21T12:13:40.760Z,20.10
2017-08-21T12:16:08.877Z,20.10
2017-08-21T12:18:36.939Z,20.10
2017-08-21T12:21:05.036Z,20.20
2017-08-21T12:23:33.116Z,20.30
2017-08-21T12:26:01.231Z,20.20
2017-08-21T12:28:29.321Z,20.20
2017-08-21T12:30:57.437Z,20.20
2017-08-21T12:33:25.532Z,20.40
2017-08-21T12:35:53.595Z,20.50
2017-08-21T12:38:21.736Z,20.70
2017-08-21T12:40:49.827Z,20.60
2017-08-21T12:43:17.900Z,20.60
2017-08-21T12:45:45.973Z,20.70
2017-08-21T12:48:14.051Z,20.70
2017-08-21T12:50:42.184Z,20.90
2017-08-21T12:53:10.273Z,20.80
2017-08-21T12:55:38.368Z,20.70
2017-08-21T12:58:06.472Z,20.80
2017-08-21T13:00:34.564Z,20.90
2017-08-21T13:03:02.668Z,20.90
2017-08-21T13:05:30.739Z,20.80
2017-08-21T13:07:58.807Z,20.70
2017-08-21T13:10:26.892Z,20.80
2017-08-21T13:12:54.968Z,21.00
2017-08-21T13:15:23.047Z,21.00
2017-08-21T13:17:51.138Z,21.10
2017-08-21T13:20:19.228Z,21.20
2017-08-21T13:22:47.313Z,20.90
2017-08-21T13:25:15.401Z,21.10
2017-08-21T13:27:43.513Z,21.20
2017-08-21T13:30:11.608Z,21.30
2017-08-21T13:32:39.727Z,21.20
2017-08-21T13:35:08.662Z,21.20
2017-08-21T13:37:36.897Z,21.20
2017-08-21T13:40:04.975Z,21.40
2017-08-21T13:42:33.080Z,21.40
2017-08-21T13:45:01.164Z,21.40
2017-08-21T13:47:29.292Z,21.50
2017-08-21T13:49:57.364Z,21.70
2017-08-21T13:52:25.462Z,21.70
2017-08-21T13:54:53.577Z,21.70
2017-08-21T13:57:21.673Z,21.70
2017-08-21T13:59:49.761Z,21.70
2017-08-21T14:02:17.874Z,21.50
2017-08-21T14:04:45.958Z,21.60
2017-08-21T14:07:14.106Z,21.80
2017-08-21T14:09:42.189Z,21.80
2017-08-21T14:12:10.289Z,21.80
2017-08-21T14:14:38.382Z,21.80
2017-08-21T14:17:06.492Z,21.70
2017-08-21T14:19:34.632Z,21.60
2017-08-21T14:22:02.711Z,21.60
2017-08-21T14:24:30.815Z,21.70
2017-08-21T14:26:58.931Z,21.60
2017-08-21T14:29:27.041Z,21.70
2017-08-21T14:31:55.115Z,21.70
2017-08-21T14:34:23.192Z,21.80
2017-08-21T14:36:51.299Z,21.80
2017-08-21T14:39:19.409Z,21.90
2017-08-21T14:41:47.501Z,21.90
2017-08-21T14:44:15.592Z,21.90
2017-08-21T14:46:43.725Z,21.80
2017-08-21T14:49:11.821Z,21.80
2017-08-21T14:51:39.905Z,21.90
2017-08-21T14:54:07.989Z,22.00
2017-08-21T14:56:36.087Z,22.00
2017-08-21T14:59:04.215Z,21.90
2017-08-21T15:01:32.313Z,21.90
2017-08-21T15:04:00.381Z,21.90
2017-08-21T15:06:28.515Z,21.90
2017-08-21T15:08:56.609Z,21.80
2017-08-21T15:11:24.696Z,21.90
2017-08-21T15:13:52.793Z,20.80
2017-08-21T15:16:20.886Z,21.80
2017-08-21T15:18:48.994Z,21.80
2017-08-21T15:21:17.097Z,21.80
2017-08-21T15:23:45.174Z,21.90
2017-08-21T15:26:13.282Z,21.70
2017-08-21T15:28:41.398Z,21.70
2017-08-21T15:31:09.493Z,21.60
2017-08-21T15:33:37.609Z,21.60
2017-08-21T15:36:05.733Z,21.50
2017-08-21T15:38:33.820Z,21.50
2017-08-21T15:41:01.918Z,21.50
2017-08-21T15:43:30.060Z,21.50
2017-08-21T15:45:58.346Z,21.50
2017-08-21T15:48:26.437Z,21.50
2017-08-21T15:50:54.533Z,21.50
2017-08-21T15:53:22.645Z,21.50
2017-08-21T15:55:50.729Z,21.50
2017-08-21T15:58:18.834Z,21.50
2017-08-21T16:00:46.937Z,21.60
2017-08-21T16:03:15.037Z,21.50
2017-08-21T16:05:43.146Z,21.40
2017-08-21T16:08:11.317Z,21.40
2017-08-21T16:10:39.468Z,21.30
2017-08-21T16:13:07.575Z,21.30
2017-08-21T16:15:35.664Z,21.10
2017-08-21T16:18:03.769Z,21.00
2017-08-21T16:20:31.853Z,21.10
2017-08-21T16:23:00.015Z,21.10
2017-08-21T16:25:29.377Z,21.10
2017-08-21T16:27:57.494Z,21.10
2017-08-21T16:30:25.583Z,21.00
2017-08-21T16:32:53.668Z,21.00
2017-08-21T16:35:21.776Z,21.00
2017-08-21T16:37:49.860Z,21.10
2017-08-21T16:40:17.961Z,21.10
2017-08-21T16:42:46.037Z,21.00
2017-08-21T16:45:14.261Z,20.90
2017-08-21T16:47:42.344Z,20.80
2017-08-21T16:50:10.435Z,20.80
2017-08-21T16:52:38.519Z,20.70
2017-08-21T16:55:06.596Z,20.70
2017-08-21T16:57:34.667Z,20.70
2017-08-21T17:00:02.752Z,20.60
2017-08-21T17:02:30.828Z,20.60
2017-08-21T17:04:58.899Z,20.60
2017-08-21T17:07:27.190Z,20.60
2017-08-21T17:09:55.265Z,20.60
2017-08-21T17:12:23.355Z,20.50
2017-08-21T17:14:51.424Z,20.50
2017-08-21T17:17:19.512Z,20.50
2017-08-21T17:19:47.611Z,20.50
2017-08-21T17:22:15.766Z,20.50
2017-08-21T17:24:43.842Z,20.50
2017-08-21T17:27:11.925Z,20.50
2017-08-21T17:29:40.032Z,20.50
2017-08-21T17:32:08.120Z,20.50
2017-08-21T17:34:36.483Z,20.40
2017-08-21T17:37:04.571Z,20.40
2017-08-21T17:39:32.652Z,20.30
2017-08-21T17:42:00.724Z,20.30
2017-08-21T17:44:28.816Z,20.20
2017-08-21T17:46:56.963Z,20.00
2017-08-21T17:49:25.044Z,20.00
2017-08-21T17:51:53.116Z,20.00
2017-08-21T17:54:21.200Z,20.00
2017-08-21T17:56:49.281Z,20.10
2017-08-21T17:59:17.408Z,20.10
2017-08-21T18:01:45.480Z,20.00
2017-08-21T18:04:13.556Z,19.90
2017-08-21T18:06:41.633Z,19.90
2017-08-21T18:09:09.718Z,19.80
2017-08-21T18:11:37.776Z,19.80
2017-08-21T18:14:05.851Z,19.70
2017-08-21T18:16:33.932Z,19.70
2017-08-21T18:19:02.023Z,19.60
2017-08-21T18:21:30.517Z,19.60
2017-08-21T18:23:58.649Z,19.70
2017-08-21T18:26:26.732Z,19.60
2017-08-21T18:28:54.801Z,19.60
2017-08-21T18:31:22.876Z,19.60
2017-08-21T18:33:50.972Z,19.50
2017-08-21T18:36:19.052Z,19.30
2017-08-21T18:38:47.126Z,19.30
2017-08-21T18:41:15.212Z,19.20
2017-08-21T18:43:43.280Z,19.20
2017-08-21T18:46:11.363Z,19.10
2017-08-21T18:48:39.455Z,19.10
2017-08-21T18:51:07.532Z,19.10
2017-08-21T18:53:35.618Z,19.00
2017-08-21T18:56:03.738Z,19.00
2017-08-21T18:58:31.808Z,18.90
2017-08-21T19:00:59.888Z,18.90
2017-08-21T19:03:27.961Z,18.90
2017-08-21T19:05:56.036Z,18.90
2017-08-21T19:08:24.219Z,18.80
2017-08-21T19:10:52.308Z,18.80
2017-08-21T19:13:20.380Z,18.80
2017-08-21T19:15:48.452Z,18.70
2017-08-21T19:18:16.527Z,18.70
2017-08-21T19:20:44.961Z,18.60
2017-08-21T19:23:13.041Z,18.60
2017-08-21T19:25:41.123Z,18.50
2017-08-21T19:28:09.199Z,18.50
2017-08-21T19:30:37.294Z,18.40
2017-08-21T19:33:05.381Z,18.40
2017-08-21T19:35:33.458Z,18.40
2017-08-21T19:38:01.540Z,18.40
2017-08-21T19:40:29.606Z,18.50
2017-08-21T19:42:57.692Z,18.50
2017-08-21T19:45:25.832Z,18.40
2017-08-21T19:47:53.935Z,18.30
2017-08-21T19:50:22.044Z,18.30
2017-08-21T19:52:50.119Z,18.00
2017-08-21T19:55:18.204Z,18.00
2017-08-21T19:57:46.315Z,18.00
2017-08-21T20:00:14.433Z,17.90
2017-08-21T20:02:42.557Z,17.70
2017-08-21T20:05:10.705Z,17.60
2017-08-21T20:07:38.866Z,17.40
2017-08-21T20:10:07.020Z,17.50
2017-08-21T20:12:35.114Z,17.50
2017-08-21T20:15:03.237Z,17.50
2017-08-21T20:17:31.313Z,17.30
2017-08-21T20:19:59.381Z,17.20
2017-08-21T20:22:27.452Z,16.90
2017-08-21T20:24:55.538Z,16.90
2017-08-21T20:27:23.599Z,16.70
2017-08-21T20:29:51.809Z,16.70
2017-08-21T20:32:20.028Z,16.80
2017-08-21T20:34:48.120Z,17.00
2017-08-21T20:37:16.192Z,17.00
2017-08-21T20:39:44.311Z,16.90
2017-08-21T20:42:12.778Z,16.70
2017-08-21T20:44:40.852Z,16.40
2017-08-21T20:47:08.940Z,16.20
2017-08-21T20:49:37.020Z,16.10
2017-08-21T20:52:05.095Z,16.10
2017-08-21T20:54:33.159Z,16.00
2017-08-21T20:57:01.250Z,16.10
2017-08-21T20:59:29.341Z,16.10
2017-08-21T21:01:57.411Z,16.10
2017-08-21T21:04:25.492Z,16.10
2017-08-21T21:06:53.641Z,16.10
2017-08-21T21:09:21.716Z,16.10
2017-08-21T21:11:49.812Z,16.00
2017-08-21T21:14:17.950Z,16.00
2017-08-21T21:16:46.043Z,16.00
2017-08-21T21:19:14.144Z,16.00
2017-08-21T21:21:42.257Z,15.90
2017-08-21T21:24:10.381Z,15.80
2017-08-21T21:26:38.496Z,15.70
2017-08-21T21:29:06.638Z,15.70
2017-08-21T21:31:34.757Z,15.70
2017-08-21T21:34:02.871Z,15.60
2017-08-21T21:36:30.998Z,15.40
2017-08-21T21:38:59.155Z,15.30
2017-08-21T21:41:27.284Z,15.20
2017-08-21T21:43:55.419Z,15.20
2017-08-21T21:46:23.500Z,15.20
2017-08-21T21:48:51.623Z,15.40
2017-08-21T21:51:19.767Z,15.50
2017-08-21T21:53:47.925Z,15.50
2017-08-21T21:56:15.997Z,15.60
2017-08-21T21:58:44.083Z,15.70
2017-08-21T22:01:12.164Z,15.60
2017-08-21T22:03:40.289Z,15.60
2017-08-21T22:06:08.386Z,15.70
2017-08-21T22:08:36.479Z,15.70
2017-08-21T22:11:05.062Z,15.70
2017-08-21T22:13:33.322Z,15.70
2017-08-21T22:16:02.157Z,15.70
2017-08-21T22:18:30.286Z,15.70
2017-08-21T22:20:58.403Z,15.70
2017-08-21T22:23:26.528Z,15.60
2017-08-21T22:25:54.641Z,15.50
2017-08-21T22:28:22.799Z,15.50
2017-08-21T22:34:22.714Z,15.50
2017-08-21T22:36:57.887Z,15.50
2017-08-21T22:39:44.223Z,15.40
2017-08-21T22:42:20.142Z,15.40
2017-08-21T22:44:53.591Z,15.40
2017-08-21T22:47:25.778Z,15.30
2017-08-21T22:50:09.602Z,15.20
2017-08-21T22:53:08.829Z,15.10
2017-08-21T22:55:46.441Z,15.20
2017-08-21T22:58:21.690Z,15.00
2017-08-21T23:08:07.694Z,15.00
2017-08-21T23:10:49.913Z,14.80
2017-08-21T23:13:34.243Z,14.70
2017-08-21T23:16:05.460Z,14.70
2017-08-21T23:18:39.611Z,14.80
2017-08-21T23:21:11.620Z,14.70
2017-08-21T23:23:41.519Z,14.60
2017-08-21T23:26:10.940Z,14.70
2017-08-21T23:28:42.950Z,14.60
2017-08-21T23:31:13.985Z,14.60
2017-08-21T23:33:44.430Z,14.60
2017-08-21T23:36:18.019Z,14.50
2017-08-21T23:38:49.817Z,14.60
2017-08-21T23:41:19.019Z,14.30
2017-08-21T23:58:00.984Z,14.40
